createdAt,value
2023-02-19T00:01:46.682Z,98.82
2023-02-19T00:04:19.291Z,98.82
2023-02-19T00:06:47.811Z,99.25
2023-02-19T00:09:16.724Z,98.31
2023-02-19T00:11:44.810Z,98.71
2023-02-19T00:14:16.628Z,98.84
2023-02-19T00:16:43.874Z,98.52
2023-02-19T00:19:14.313Z,99.14
2023-02-19T00:21:41.675Z,99.01
2023-02-19T00:24:12.560Z,99.17
2023-02-19T00:26:41.424Z,98.81
2023-02-19T00:29:13.268Z,98.88
2023-02-19T00:31:42.170Z,98.89
2023-02-19T00:34:10.941Z,98.69
2023-02-19T00:36:40.079Z,98.72
2023-02-19T00:39:08.304Z,98.83
2023-02-19T00:41:35.705Z,98.56
2023-02-19T00:44:05.456Z,98.89
2023-02-19T00:46:35.925Z,98.90
2023-02-19T00:49:04.683Z,99.28
2023-02-19T00:51:34.937Z,99.15
2023-02-19T00:54:01.951Z,99.40
2023-02-19T00:56:31.063Z,99.39
2023-02-19T00:58:58.245Z,99.44
2023-02-19T01:01:25.466Z,98.90
2023-02-19T01:03:52.985Z,98.93
2023-02-19T01:06:21.592Z,99.22
2023-02-19T01:08:49.044Z,99.04
2023-02-19T01:11:17.457Z,99.01
2023-02-19T01:13:45.146Z,98.79
2023-02-19T01:16:20.726Z,98.95
2023-02-19T01:18:48.699Z,99.26
2023-02-19T01:21:19.805Z,99.79
2023-02-19T01:23:48.104Z,99.01
2023-02-19T01:26:18.755Z,99.16
2023-02-19T01:28:47.370Z,99.59
2023-02-19T01:31:17.738Z,99.20
2023-02-19T01:33:50.303Z,99.24
2023-02-19T01:36:18.190Z,99.36
2023-02-19T01:38:46.003Z,99.26
2023-02-19T01:41:16.650Z,99.43
2023-02-19T01:44:09.007Z,99.19
2023-02-19T01:46:38.407Z,99.47
2023-02-19T01:49:30.437Z,99.73
2023-02-19T01:52:06.466Z,99.17
2023-02-19T01:54:40.716Z,99.34
2023-02-19T01:57:12.723Z,99.57
2023-02-19T01:59:41.219Z,99.32
2023-02-19T02:02:09.432Z,99.57
2023-02-19T02:04:36.893Z,99.72
2023-02-19T02:07:25.592Z,99.94
2023-02-19T02:10:11.981Z,99.32
2023-02-19T02:12:39.494Z,99.47
2023-02-19T02:15:07.988Z,99.26
2023-02-19T02:17:56.414Z,99.22
2023-02-19T02:20:42.243Z,99.02
2023-02-19T02:23:30.486Z,98.86
2023-02-19T02:26:17.565Z,99.54
2023-02-19T02:29:11.151Z,99.11
2023-02-19T02:31:42.769Z,98.96
2023-02-19T02:34:27.679Z,98.74
2023-02-19T02:36:57.858Z,99.15
2023-02-19T02:39:28.535Z,99.06
2023-02-19T02:42:16.825Z,98.88
2023-02-19T02:45:09.770Z,98.92
2023-02-19T02:47:57.806Z,98.62
2023-02-19T02:50:36.993Z,98.53
2023-02-19T02:53:30.504Z,98.62
2023-02-19T02:56:00.643Z,98.27
2023-02-19T02:58:29.954Z,98.93
2023-02-19T03:01:20.004Z,98.78
2023-02-19T03:03:52.057Z,98.57
2023-02-19T03:06:21.362Z,98.27
2023-02-19T03:08:56.047Z,98.41
2023-02-19T03:11:42.336Z,98.25
2023-02-19T03:14:43.205Z,98.20
2023-02-19T03:17:35.637Z,98.08
2023-02-19T03:20:09.786Z,98.69
2023-02-19T03:22:38.696Z,98.83
2023-02-19T03:25:33.286Z,98.21
2023-02-19T03:28:05.549Z,99.11
2023-02-19T03:30:37.003Z,98.78
2023-02-19T03:33:27.586Z,99.26
2023-02-19T03:36:02.657Z,99.13
2023-02-19T03:38:45.056Z,99.57
2023-02-19T03:41:41.131Z,99.67
2023-02-19T03:44:08.566Z,99.18
2023-02-19T03:46:41.783Z,99.24
2023-02-19T03:49:43.984Z,99.59
2023-02-19T03:52:37.435Z,99.17
2023-02-19T03:55:26.606Z,99.25
2023-02-19T03:58:05.579Z,99.69
2023-02-19T04:00:41.128Z,99.80
2023-02-19T04:03:21.346Z,99.38
2023-02-19T04:05:51.425Z,100.00
2023-02-19T04:08:22.519Z,99.70
2023-02-19T04:10:55.879Z,100.00
2023-02-19T04:13:39.032Z,99.74
2023-02-19T04:16:14.045Z,99.73
2023-02-19T04:18:44.600Z,100.00
2023-02-19T04:21:12.809Z,100.00
2023-02-19T04:23:44.149Z,100.00
2023-02-19T04:26:12.932Z,99.83
2023-02-19T04:28:41.419Z,100.00
2023-02-19T04:31:09.605Z,99.87
2023-02-19T04:33:38.164Z,100.00
2023-02-19T04:36:05.778Z,100.00
2023-02-19T04:38:33.117Z,100.00
2023-02-19T04:41:00.340Z,99.97
2023-02-19T04:43:27.634Z,100.00
2023-02-19T04:45:54.947Z,100.00
2023-02-19T04:48:22.154Z,100.00
2023-02-19T04:50:49.385Z,100.00
2023-02-19T04:53:16.719Z,99.93
2023-02-19T04:55:44.084Z,100.00
2023-02-19T04:58:11.430Z,100.00
2023-02-19T05:00:38.763Z,100.00
2023-02-19T05:03:06.357Z,100.00
2023-02-19T05:05:33.735Z,100.00
2023-02-19T05:08:00.992Z,100.00
2023-02-19T05:10:28.259Z,100.00
2023-02-19T05:12:57.862Z,100.00
2023-02-19T05:15:25.468Z,99.87
2023-02-19T05:17:52.741Z,99.56
2023-02-19T05:20:20.001Z,99.96
2023-02-19T05:22:47.255Z,100.00
2023-02-19T05:25:14.741Z,100.00
2023-02-19T05:27:42.113Z,99.89
2023-02-19T05:30:10.301Z,100.00
2023-02-19T05:32:38.236Z,100.00
2023-02-19T05:35:05.762Z,100.00
2023-02-19T05:37:33.065Z,99.88
2023-02-19T05:40:00.354Z,99.94
2023-02-19T05:42:27.702Z,99.82
2023-02-19T05:44:55.043Z,99.98
2023-02-19T05:47:22.242Z,99.64
2023-02-19T05:49:49.567Z,99.55
2023-02-19T05:52:16.887Z,99.35
2023-02-19T05:54:44.256Z,99.60
2023-02-19T05:57:11.572Z,99.46
2023-02-19T05:59:38.807Z,99.90
2023-02-19T06:02:06.186Z,99.53
2023-02-19T06:04:33.502Z,99.32
2023-02-19T06:07:00.810Z,99.36
2023-02-19T06:09:28.280Z,99.48
2023-02-19T06:11:55.649Z,99.37
2023-02-19T06:14:22.993Z,98.85
2023-02-19T06:16:50.211Z,99.37
2023-02-19T06:19:17.535Z,99.24
2023-02-19T06:21:45.054Z,99.15
2023-02-19T06:24:12.342Z,99.25
2023-02-19T06:26:39.719Z,99.23
2023-02-19T06:29:06.980Z,99.29
2023-02-19T06:31:34.377Z,99.02
2023-02-19T06:34:04.815Z,98.96
2023-02-19T06:36:32.158Z,98.77
2023-02-19T06:39:04.776Z,98.70
2023-02-19T06:41:32.420Z,98.63
2023-02-19T06:43:59.700Z,98.86
2023-02-19T06:46:28.210Z,98.81
2023-02-19T06:48:56.006Z,98.66
2023-02-19T06:51:26.715Z,98.70
2023-02-19T06:53:55.522Z,99.10
2023-02-19T06:56:33.447Z,98.70
2023-02-19T06:59:04.215Z,99.09
2023-02-19T07:01:33.946Z,98.61
2023-02-19T07:04:02.388Z,99.06
2023-02-19T07:06:31.489Z,98.70
2023-02-19T07:09:00.142Z,98.58
2023-02-19T07:11:31.273Z,98.55
2023-02-19T07:14:01.184Z,98.72
2023-02-19T07:16:29.915Z,99.37
2023-02-19T07:19:01.184Z,98.38
2023-02-19T07:21:31.159Z,98.87
2023-02-19T07:23:59.261Z,98.84
2023-02-19T07:26:27.419Z,98.38
2023-02-19T07:28:55.728Z,98.14
2023-02-19T07:31:25.316Z,98.21
2023-02-19T07:33:53.759Z,98.52
2023-02-19T07:36:23.937Z,98.37
2023-02-19T07:38:58.647Z,97.63
2023-02-19T07:41:28.003Z,97.65
2023-02-19T07:43:58.665Z,97.69
2023-02-19T07:46:26.729Z,97.71
2023-02-19T07:48:54.657Z,97.44
2023-02-19T07:51:22.894Z,97.54
2023-02-19T07:53:51.728Z,96.61
2023-02-19T07:56:20.629Z,96.57
2023-02-19T07:58:48.446Z,96.47
2023-02-19T08:01:19.346Z,96.50
2023-02-19T08:03:50.074Z,96.83
2023-02-19T08:06:18.136Z,96.83
2023-02-19T08:08:46.204Z,96.85
2023-02-19T08:11:32.745Z,96.42
2023-02-19T08:14:00.624Z,96.85
2023-02-19T08:16:41.963Z,96.28
2023-02-19T08:19:10.625Z,96.45
2023-02-19T08:21:38.507Z,96.34
2023-02-19T08:24:06.778Z,96.19
2023-02-19T08:26:35.171Z,95.71
2023-02-19T08:29:04.517Z,96.17
2023-02-19T08:31:33.313Z,95.87
2023-02-19T08:34:01.545Z,95.66
2023-02-19T08:36:29.720Z,95.16
2023-02-19T08:38:57.722Z,95.22
2023-02-19T08:41:25.392Z,94.98
2023-02-19T08:43:53.411Z,94.86
2023-02-19T08:46:23.180Z,94.73
2023-02-19T08:48:51.465Z,93.43
2023-02-19T08:51:19.652Z,92.96
2023-02-19T08:53:47.774Z,91.74
2023-02-19T08:56:17.952Z,91.51
2023-02-19T08:58:46.003Z,91.84
2023-02-19T09:01:18.678Z,90.90
2023-02-19T09:03:47.278Z,91.42
2023-02-19T09:06:19.197Z,90.56
2023-02-19T09:08:47.591Z,90.72
2023-02-19T09:11:16.200Z,90.33
2023-02-19T09:13:44.843Z,89.93
2023-02-19T09:16:13.276Z,89.00
2023-02-19T09:18:40.967Z,88.46
2023-02-19T09:21:09.098Z,88.01
2023-02-19T09:23:38.462Z,87.48
2023-02-19T09:26:10.471Z,87.86
2023-02-19T09:28:42.192Z,87.00
2023-02-19T09:31:14.093Z,85.46
2023-02-19T09:33:49.592Z,85.50
2023-02-19T09:36:19.414Z,84.97
2023-02-19T09:38:47.453Z,83.69
2023-02-19T09:41:23.283Z,82.75
2023-02-19T09:43:51.523Z,83.32
2023-02-19T09:46:49.503Z,83.16
2023-02-19T09:49:30.823Z,83.17
2023-02-19T09:52:07.172Z,83.20
2023-02-19T09:54:37.852Z,82.55
2023-02-19T09:57:07.160Z,82.36
2023-02-19T09:59:46.286Z,82.13
2023-02-19T10:02:20.718Z,82.36
2023-02-19T10:04:51.811Z,82.21
2023-02-19T10:07:42.690Z,80.86
2023-02-19T10:10:13.385Z,80.87
2023-02-19T10:12:48.301Z,81.22
2023-02-19T10:15:26.385Z,81.21
2023-02-19T10:17:54.157Z,80.44
2023-02-19T10:20:27.177Z,80.60
2023-02-19T10:23:11.080Z,79.82
2023-02-19T10:25:45.289Z,80.02
2023-02-19T10:28:22.789Z,80.08
2023-02-19T10:30:58.953Z,80.28
2023-02-19T10:33:27.542Z,80.76
2023-02-19T10:35:59.049Z,78.23
2023-02-19T10:38:30.061Z,77.66
2023-02-19T10:41:08.450Z,76.09
2023-02-19T10:43:41.412Z,75.89
2023-02-19T10:46:22.604Z,76.39
2023-02-19T10:49:00.778Z,76.94
2023-02-19T10:51:37.840Z,76.33
2023-02-19T10:54:17.005Z,75.79
2023-02-19T10:56:45.333Z,75.65
2023-02-19T10:59:26.177Z,75.05
2023-02-19T11:02:04.674Z,74.02
2023-02-19T11:04:35.926Z,74.06
2023-02-19T11:07:18.367Z,74.21
2023-02-19T11:09:50.140Z,73.28
2023-02-19T11:12:28.809Z,73.27
2023-02-19T11:14:56.739Z,73.17
2023-02-19T11:17:26.118Z,73.78
2023-02-19T11:19:59.169Z,72.98
2023-02-19T11:22:34.753Z,72.71
2023-02-19T11:25:13.548Z,71.51
2023-02-19T11:28:10.562Z,72.14
2023-02-19T11:30:42.588Z,73.03
2023-02-19T11:33:22.919Z,72.96
2023-02-19T11:35:54.570Z,72.31
2023-02-19T11:38:22.806Z,72.06
2023-02-19T11:41:32.038Z,72.47
2023-02-19T11:44:30.514Z,73.67
2023-02-19T11:47:16.532Z,73.85
2023-02-19T11:49:51.270Z,72.68
2023-02-19T11:52:30.711Z,69.69
2023-02-19T11:55:19.800Z,68.99
2023-02-19T11:57:53.224Z,69.38
2023-02-19T12:00:41.885Z,69.31
2023-02-19T12:03:55.569Z,69.26
2023-02-19T12:06:59.815Z,67.45
2023-02-19T12:09:48.099Z,66.70
2023-02-19T12:12:30.368Z,64.64
2023-02-19T12:15:09.515Z,62.83
2023-02-19T12:17:47.326Z,62.29
2023-02-19T12:20:23.490Z,62.11
2023-02-19T12:23:11.105Z,61.74
2023-02-19T12:26:00.342Z,61.15
2023-02-19T12:28:42.809Z,60.16
2023-02-19T12:31:28.819Z,59.28
2023-02-19T12:34:26.656Z,60.18
2023-02-19T12:37:12.757Z,59.78
2023-02-19T12:39:54.382Z,60.87
2023-02-19T12:42:46.445Z,61.21
2023-02-19T12:45:21.868Z,60.67
2023-02-19T12:48:01.401Z,60.03
2023-02-19T12:50:30.042Z,59.43
2023-02-19T12:53:12.185Z,58.03
2023-02-19T12:55:44.698Z,58.04
2023-02-19T12:58:30.252Z,59.14
2023-02-19T13:01:00.181Z,59.37
2023-02-19T13:03:49.486Z,59.18
2023-02-19T13:07:07.824Z,58.00
2023-02-19T13:09:42.185Z,58.96
2023-02-19T13:12:27.258Z,59.30
2023-02-19T13:15:18.760Z,58.49
2023-02-19T13:17:52.211Z,58.03
2023-02-19T13:20:44.055Z,58.18
2023-02-19T13:23:37.466Z,57.54
2023-02-19T13:26:11.574Z,57.48
2023-02-19T13:29:09.132Z,57.79
2023-02-19T13:32:01.964Z,58.23
2023-02-19T13:34:55.217Z,59.48
2023-02-19T13:37:24.585Z,56.59
2023-02-19T13:39:56.289Z,54.13
2023-02-19T13:42:28.278Z,53.47
2023-02-19T13:44:58.066Z,54.00
2023-02-19T13:47:49.106Z,54.25
2023-02-19T13:50:30.276Z,55.47
2023-02-19T13:53:01.743Z,56.71
2023-02-19T13:55:47.322Z,56.30
2023-02-19T13:58:34.244Z,55.50
2023-02-19T14:01:11.024Z,55.31
2023-02-19T14:03:55.160Z,55.34
2023-02-19T14:06:22.921Z,55.03
2023-02-19T14:09:00.716Z,54.52
2023-02-19T14:11:44.548Z,54.20
2023-02-19T14:14:27.404Z,55.04
2023-02-19T14:17:25.069Z,53.99
2023-02-19T14:19:57.000Z,52.84
2023-02-19T14:22:58.390Z,52.31
2023-02-19T14:25:31.789Z,52.74
2023-02-19T14:28:12.769Z,53.10
2023-02-19T14:30:54.578Z,52.76
2023-02-19T14:33:31.248Z,52.62
2023-02-19T14:36:22.199Z,52.18
2023-02-19T14:39:13.473Z,52.68
2023-02-19T14:41:44.431Z,53.50
2023-02-19T14:44:33.434Z,53.44
2023-02-19T14:47:07.674Z,53.97
2023-02-19T14:49:48.739Z,53.46
2023-02-19T14:52:37.268Z,51.83
2023-02-19T14:55:34.530Z,52.22
2023-02-19T14:58:08.287Z,52.32
2023-02-19T15:00:38.741Z,53.04
2023-02-19T15:03:07.328Z,52.51
2023-02-19T15:05:37.486Z,52.56
2023-02-19T15:08:10.587Z,53.48
2023-02-19T15:10:39.898Z,53.48
2023-02-19T15:13:12.538Z,54.33
2023-02-19T15:15:45.791Z,55.04
2023-02-19T15:18:24.580Z,55.10
2023-02-19T15:21:01.763Z,55.53
2023-02-19T15:23:32.399Z,55.16
2023-02-19T15:26:01.128Z,55.92
2023-02-19T15:28:33.391Z,55.94
2023-02-19T15:31:02.670Z,56.10
2023-02-19T15:33:30.618Z,56.70
2023-02-19T15:36:05.268Z,57.59
2023-02-19T15:38:34.539Z,57.69
2023-02-19T15:41:03.306Z,58.03
2023-02-19T15:43:51.263Z,57.43
2023-02-19T15:46:22.916Z,57.71
2023-02-19T15:49:00.214Z,57.99
2023-02-19T15:51:39.145Z,58.40
2023-02-19T15:54:30.075Z,58.06
2023-02-19T15:57:04.566Z,58.01
2023-02-19T15:59:40.680Z,57.57
2023-02-19T16:02:16.605Z,57.32
2023-02-19T16:04:46.267Z,57.69
2023-02-19T16:07:29.008Z,57.60
2023-02-19T16:10:21.064Z,57.43
2023-02-19T16:13:00.258Z,57.62
2023-02-19T16:15:30.450Z,58.09
2023-02-19T16:17:59.836Z,58.29
2023-02-19T16:20:29.465Z,58.04
2023-02-19T16:23:01.475Z,58.57
2023-02-19T16:25:42.029Z,58.36
2023-02-19T16:28:20.041Z,58.90
2023-02-19T16:30:57.174Z,58.54
2023-02-19T16:34:16.044Z,59.00
2023-02-19T16:36:46.244Z,59.18
2023-02-19T16:39:17.543Z,60.26
2023-02-19T16:41:48.552Z,59.85
2023-02-19T16:44:22.427Z,60.72
2023-02-19T16:47:04.388Z,60.64
2023-02-19T16:49:32.885Z,61.38
2023-02-19T16:52:04.284Z,61.50
2023-02-19T16:54:32.653Z,61.55
2023-02-19T16:57:00.864Z,61.79
2023-02-19T16:59:28.796Z,61.62
2023-02-19T17:01:57.384Z,62.23
2023-02-19T17:04:25.503Z,62.30
2023-02-19T17:06:53.514Z,62.28
2023-02-19T17:09:21.454Z,62.86
2023-02-19T17:11:49.368Z,63.26
2023-02-19T17:14:17.073Z,62.82
2023-02-19T17:16:45.128Z,63.41
2023-02-19T17:19:16.284Z,63.66
2023-02-19T17:21:45.615Z,64.27
2023-02-19T17:24:14.234Z,63.79
2023-02-19T17:26:42.236Z,64.19
2023-02-19T17:29:14.697Z,64.05
2023-02-19T17:31:42.955Z,64.19
2023-02-19T17:34:11.385Z,64.78
2023-02-19T17:36:39.743Z,64.57
2023-02-19T17:39:07.682Z,64.91
2023-02-19T17:41:35.848Z,64.93
2023-02-19T17:44:03.452Z,65.10
2023-02-19T17:46:31.493Z,65.18
2023-02-19T17:48:59.582Z,65.21
2023-02-19T17:51:27.789Z,65.16
2023-02-19T17:53:55.810Z,65.59
2023-02-19T17:56:26.907Z,65.73
2023-02-19T17:58:59.136Z,65.88
2023-02-19T18:01:27.257Z,66.51
2023-02-19T18:03:55.459Z,66.30
2023-02-19T18:06:23.547Z,66.82
2023-02-19T18:08:56.237Z,66.74
2023-02-19T18:11:24.808Z,67.19
2023-02-19T18:13:52.915Z,67.30
2023-02-19T18:16:22.291Z,67.47
2023-02-19T18:18:49.597Z,67.79
2023-02-19T18:21:17.107Z,68.05
2023-02-19T18:23:46.724Z,67.90
2023-02-19T18:26:20.473Z,68.28
2023-02-19T18:28:47.816Z,68.42
2023-02-19T18:31:15.540Z,68.84
2023-02-19T18:33:43.222Z,69.06
2023-02-19T18:36:12.221Z,69.06
2023-02-19T18:38:39.743Z,69.42
2023-02-19T18:41:12.431Z,69.06
2023-02-19T18:43:43.269Z,69.09
2023-02-19T18:46:11.321Z,69.52
2023-02-19T18:48:39.378Z,69.22
2023-02-19T18:51:11.341Z,69.28
2023-02-19T18:53:38.994Z,69.49
2023-02-19T18:56:09.156Z,69.63
2023-02-19T18:58:36.558Z,70.01
2023-02-19T19:01:04.214Z,69.37
2023-02-19T19:03:32.270Z,69.38
2023-02-19T19:05:59.881Z,69.75
2023-02-19T19:08:29.188Z,69.95
2023-02-19T19:10:58.140Z,69.91
2023-02-19T19:13:25.772Z,69.98
2023-02-19T19:15:53.466Z,70.14
2023-02-19T19:18:21.022Z,70.12
2023-02-19T19:20:48.371Z,70.45
2023-02-19T19:23:15.765Z,70.86
2023-02-19T19:25:43.536Z,70.78
2023-02-19T19:28:11.484Z,70.65
2023-02-19T19:30:39.382Z,70.79
2023-02-19T19:33:07.352Z,70.96
2023-02-19T19:35:35.258Z,71.15
2023-02-19T19:38:03.568Z,71.00
2023-02-19T19:40:31.875Z,71.42
2023-02-19T19:42:59.996Z,71.44
2023-02-19T19:45:28.549Z,71.38
2023-02-19T19:47:56.663Z,71.64
2023-02-19T19:50:25.005Z,71.44
2023-02-19T19:52:53.034Z,71.41
2023-02-19T19:55:24.268Z,71.73
2023-02-19T19:57:54.599Z,71.73
2023-02-19T20:00:24.947Z,71.97
2023-02-19T20:02:52.671Z,71.76
2023-02-19T20:05:20.627Z,72.27
2023-02-19T20:07:48.816Z,72.04
2023-02-19T20:10:19.751Z,71.73
2023-02-19T20:12:48.310Z,71.90
2023-02-19T20:15:22.544Z,72.04
2023-02-19T20:17:50.935Z,71.81
2023-02-19T20:20:20.068Z,72.06
2023-02-19T20:22:48.033Z,71.57
2023-02-19T20:25:16.667Z,72.02
2023-02-19T20:27:44.842Z,71.93
2023-02-19T20:30:15.120Z,72.29
2023-02-19T20:32:43.892Z,72.52
2023-02-19T20:35:11.980Z,72.29
2023-02-19T20:37:40.987Z,72.41
2023-02-19T20:40:09.613Z,72.45
2023-02-19T20:42:37.518Z,72.52
2023-02-19T20:45:06.665Z,72.80
2023-02-19T20:47:34.652Z,72.85
2023-02-19T20:50:02.742Z,72.75
2023-02-19T20:52:30.525Z,72.80
2023-02-19T20:54:58.572Z,72.90
2023-02-19T20:57:26.593Z,73.02
2023-02-19T20:59:54.496Z,72.78
2023-02-19T21:02:28.464Z,72.83
2023-02-19T21:05:00.302Z,73.02
2023-02-19T21:07:28.591Z,73.29
2023-02-19T21:09:56.335Z,73.37
2023-02-19T21:12:24.336Z,73.65
2023-02-19T21:14:52.606Z,73.93
2023-02-19T21:17:20.640Z,74.06
2023-02-19T21:19:50.203Z,74.37
2023-02-19T21:22:18.102Z,74.46
2023-02-19T21:24:50.012Z,74.68
2023-02-19T21:27:18.703Z,74.90
2023-02-19T21:29:47.828Z,74.87
2023-02-19T21:32:16.115Z,75.48
2023-02-19T21:34:43.828Z,75.22
2023-02-19T21:37:12.009Z,75.24
2023-02-19T21:39:39.796Z,75.37
2023-02-19T21:42:07.583Z,75.37
2023-02-19T21:44:35.503Z,75.28
2023-02-19T21:47:03.509Z,75.31
2023-02-19T21:49:31.664Z,75.55
2023-02-19T21:51:59.590Z,75.59
2023-02-19T21:54:27.313Z,75.20
2023-02-19T21:56:55.455Z,75.27
2023-02-19T21:59:23.950Z,75.27
2023-02-19T22:01:52.310Z,75.06
2023-02-19T22:04:22.501Z,75.10
2023-02-19T22:06:51.279Z,75.09
2023-02-19T22:09:18.983Z,75.30
2023-02-19T22:11:46.614Z,74.69
2023-02-19T22:14:14.891Z,74.88
2023-02-19T22:16:42.613Z,75.08
2023-02-19T22:19:12.494Z,74.86
2023-02-19T22:21:44.037Z,74.92
2023-02-19T22:24:18.109Z,75.20
2023-02-19T22:26:46.568Z,75.14
2023-02-19T22:29:16.300Z,74.95
2023-02-19T22:31:44.366Z,75.17
2023-02-19T22:34:13.314Z,75.29
2023-02-19T22:36:40.858Z,75.42
2023-02-19T22:39:21.413Z,75.49
2023-02-19T22:41:50.328Z,75.62
2023-02-19T22:44:18.663Z,75.46
2023-02-19T22:46:49.777Z,76.10
2023-02-19T22:49:18.490Z,76.19
2023-02-19T22:52:14.065Z,76.43
2023-02-19T22:54:41.896Z,76.74
2023-02-19T22:57:09.546Z,76.70
2023-02-19T22:59:37.511Z,76.64
2023-02-19T23:02:05.324Z,76.73
2023-02-19T23:04:33.315Z,76.92
2023-02-19T23:07:01.161Z,76.82
2023-02-19T23:09:29.684Z,77.05
2023-02-19T23:12:08.429Z,77.23
2023-02-19T23:14:36.012Z,77.41
2023-02-19T23:17:03.565Z,76.98
2023-02-19T23:19:31.184Z,76.97
2023-02-19T23:21:58.615Z,77.39
2023-02-19T23:24:26.241Z,77.14
2023-02-19T23:26:54.340Z,76.97
2023-02-19T23:29:25.605Z,77.28
2023-02-19T23:31:53.527Z,77.24
2023-02-19T23:34:20.946Z,77.27
2023-02-19T23:36:50.750Z,77.54
2023-02-19T23:39:20.648Z,77.42
2023-02-19T23:41:56.582Z,77.69
2023-02-19T23:44:25.453Z,77.30
2023-02-19T23:46:53.480Z,77.48
2023-02-19T23:49:20.927Z,77.16
2023-02-19T23:51:48.421Z,76.99
2023-02-19T23:54:15.987Z,76.97
2023-02-19T23:56:43.278Z,76.49
2023-02-19T23:59:10.742Z,76.30
